Time;durP1;ratioP1;P1;durP2;ratioP2;P2;SDS_P1;SDS_P2;PMS_P1;PMS_P2;Temp;Humidity;BMP_temperature;BMP_pressure;BME280_temperature;BME280_humidity;BME280_pressure;Samples;Min_cycle;Max_cycle;Signal;HPM_P1;HPM_P2
2023/05/29 00:01:58;;;;;;;11.77;5.32;;;;;;;11.90;82.77;102122.81;5073190;28;20049;-76
2023/05/29 00:04:44;;;;;;;12.35;4.07;;;;;;;11.83;82.62;102134.34;5069141;28;20136;-76
2023/05/29 00:07:30;;;;;;;9.80;3.95;;;;;;;11.77;82.55;102139.72;5082545;28;20125;-75
2023/05/29 00:10:16;;;;;;;11.90;4.30;;;;;;;11.70;82.50;102136.28;5080317;28;20132;-73
2023/05/29 00:13:01;;;;;;;9.93;3.47;;;;;;;11.65;82.62;102136.38;5084586;28;20044;-72
2023/05/29 00:15:47;;;;;;;15.93;4.38;;;;;;;11.60;82.29;102138.19;5086718;28;20057;-72
2023/05/29 00:18:32;;;;;;;11.90;3.58;;;;;;;11.57;82.03;102142.63;5095101;28;20056;-73
2023/05/29 00:21:18;;;;;;;12.18;3.67;;;;;;;11.50;81.95;102148.00;5106199;28;20053;-73
2023/05/29 00:24:03;;;;;;;11.05;3.65;;;;;;;11.48;81.50;102147.16;5114976;27;20048;-72
2023/05/29 00:26:48;;;;;;;11.20;3.55;;;;;;;11.41;81.09;102150.78;5088051;28;20127;-72
2023/05/29 00:29:35;;;;;;;11.32;3.35;;;;;;;11.33;80.76;102153.50;5086300;28;20052;-72
2023/05/29 00:32:21;;;;;;;12.70;3.20;;;;;;;11.30;80.13;102155.31;5073313;28;20496;-72
2023/05/29 00:35:07;;;;;;;10.40;3.10;;;;;;;11.27;79.50;102160.63;5069600;28;20052;-72
2023/05/29 00:37:52;;;;;;;11.27;3.05;;;;;;;11.17;79.39;102160.72;5070132;28;20060;-72
2023/05/29 00:40:40;;;;;;;15.93;3.58;;;;;;;11.14;79.14;102158.13;5084490;28;20891;-72
2023/05/29 00:43:25;;;;;;;12.82;3.38;;;;;;;11.10;79.10;102166.09;5068023;28;20049;-71
2023/05/29 00:46:14;;;;;;;11.93;3.30;;;;;;;11.03;79.11;102174.09;5074176;28;20098;-71
2023/05/29 00:49:01;;;;;;;13.27;4.03;;;;;;;10.98;78.74;102181.19;5069454;28;20907;-72
2023/05/29 00:51:48;;;;;;;15.40;3.30;;;;;;;10.96;78.38;102174.16;5068770;28;20049;-71
2023/05/29 00:54:34;;;;;;;13.25;3.67;;;;;;;10.91;78.23;102176.00;5087548;28;20890;-74
2023/05/29 00:57:21;;;;;;;13.38;3.42;;;;;;;10.85;78.45;102176.94;5086858;28;20122;-75
2023/05/29 01:00:13;;;;;;;13.73;3.45;;;;;;;10.79;78.46;102185.78;5082267;28;20508;-76
2023/05/29 01:03:04;;;;;;;14.20;3.17;;;;;;;10.78;78.14;102185.81;5068920;28;20049;-76
2023/05/29 01:05:51;;;;;;;11.02;3.08;;;;;;;10.71;78.12;102190.25;5065738;28;20057;-76
2023/05/29 01:08:37;;;;;;;14.27;3.65;;;;;;;10.69;78.22;102194.66;5081725;28;20049;-79
2023/05/29 01:11:57;;;;;;;12.15;2.92;;;;;;;10.63;78.24;102187.69;5088910;28;20529;-78
2023/05/29 01:15:13;;;;;;;11.88;3.30;;;;;;;10.62;78.54;102192.97;5082364;28;20841;-74
2023/05/29 01:18:08;;;;;;;16.52;3.38;;;;;;;10.58;78.44;102194.78;5080393;28;20080;-75
2023/05/29 01:21:35;;;;;;;10.68;3.05;;;;;;;10.58;78.15;102186.88;5059406;28;20057;-74
2023/05/29 01:25:11;;;;;;;14.20;2.85;;;;;;;10.51;78.21;102190.41;5075718;28;20504;-77
2023/05/29 01:28:02;;;;;;;14.80;3.63;;;;;;;10.45;78.36;102188.72;5071984;28;20488;-77
2023/05/29 01:30:50;;;;;;;13.85;3.35;;;;;;;10.40;78.46;102194.00;5067495;28;20513;-74
2023/05/29 01:33:40;;;;;;;9.90;2.80;;;;;;;10.39;78.33;102200.16;5083255;28;20591;-76
2023/05/29 01:36:26;;;;;;;15.50;3.60;;;;;;;10.35;78.55;102192.28;5081612;28;20095;-75
2023/05/29 01:39:13;;;;;;;13.18;3.13;;;;;;;10.35;78.36;102200.19;5084284;28;20549;-74
2023/05/29 01:42:00;;;;;;;14.23;2.88;;;;;;;10.35;78.29;102206.34;5079148;28;20049;-74
2023/05/29 01:44:46;;;;;;;15.25;3.30;;;;;;;10.30;78.55;102194.94;5080602;28;20131;-74
2023/05/29 01:47:35;;;;;;;16.17;3.63;;;;;;;10.25;78.71;102199.38;5083207;28;21067;-73
2023/05/29 01:50:24;;;;;;;15.68;3.45;;;;;;;10.23;78.71;102191.47;5078979;28;20600;-73
2023/05/29 01:53:10;;;;;;;15.63;3.38;;;;;;;10.19;78.69;102191.50;5079995;28;20052;-71
2023/05/29 01:55:55;;;;;;;16.02;3.25;;;;;;;10.16;78.94;102192.41;5081298;28;20060;-71
2023/05/29 01:58:42;;;;;;;13.15;3.03;;;;;;;10.14;79.23;102188.91;5068992;28;20056;-71
2023/05/29 02:01:27;;;;;;;16.70;2.80;;;;;;;10.11;79.23;102188.94;5057678;28;20738;-71
2023/05/29 02:04:12;;;;;;;13.15;3.47;;;;;;;10.08;79.14;102186.31;5063575;28;20048;-72
2023/05/29 02:06:57;;;;;;;15.52;3.45;;;;;;;10.05;79.27;102191.59;5079331;28;20152;-72
2023/05/29 02:09:43;;;;;;;11.93;2.72;;;;;;;10.04;79.48;102193.38;5084998;28;20094;-74
2023/05/29 02:12:28;;;;;;;13.30;3.15;;;;;;;10.01;79.66;102189.91;5069666;28;20064;-71
2023/05/29 02:15:14;;;;;;;18.20;3.10;;;;;;;9.95;79.92;102188.16;5085092;28;20178;-73
2023/05/29 02:18:00;;;;;;;10.30;2.92;;;;;;;9.92;80.17;102189.03;5066227;28;20048;-73
2023/05/29 02:20:46;;;;;;;11.13;3.25;;;;;;;9.88;80.28;102189.06;5069631;28;20139;-72
2023/05/29 02:23:39;;;;;;;16.15;3.15;;;;;;;9.87;80.44;102189.97;5083630;28;20437;-72
2023/05/29 02:26:24;;;;;;;11.90;2.85;;;;;;;9.84;80.93;102193.47;5088914;28;20209;-72
2023/05/29 02:29:10;;;;;;;16.52;3.83;;;;;;;9.80;80.80;102199.66;5070117;28;20057;-72
2023/05/29 02:31:56;;;;;;;15.73;3.70;;;;;;;9.77;81.14;102194.41;5084017;28;20048;-73
2023/05/29 02:34:41;;;;;;;12.85;3.17;;;;;;;9.76;81.30;102205.81;5086044;28;20777;-73
2023/05/29 02:37:27;;;;;;;15.38;3.55;;;;;;;9.71;81.24;102205.84;5085420;28;20053;-74
2023/05/29 02:40:13;;;;;;;14.15;2.83;;;;;;;9.68;81.88;102213.75;5086045;28;20051;-73
2023/05/29 02:42:58;;;;;;;15.50;2.95;;;;;;;9.68;81.86;102218.16;5065700;28;20508;-75
2023/05/29 02:45:43;;;;;;;15.57;3.03;;;;;;;9.66;81.95;102220.81;5083901;28;20056;-74
2023/05/29 02:48:29;;;;;;;13.82;3.17;;;;;;;9.64;82.07;102217.31;5084795;28;20056;-76
2023/05/29 02:51:14;;;;;;;13.63;2.50;;;;;;;9.61;82.15;102222.56;5087235;28;20596;-76
2023/05/29 02:54:00;;;;;;;15.10;3.60;;;;;;;9.57;82.49;102216.44;5086450;28;20572;-76
2023/05/29 02:56:45;;;;;;;16.48;3.17;;;;;;;9.52;82.51;102209.44;5082337;28;20052;-75
2023/05/29 02:59:31;;;;;;;14.70;3.08;;;;;;;9.50;82.88;102222.63;5088595;28;20107;-75
2023/05/29 03:02:20;;;;;;;21.00;4.30;;;;;;;9.46;83.04;102213.84;5071572;28;20053;-75
2023/05/29 03:05:06;;;;;;;16.88;3.78;;;;;;;9.43;83.25;102215.63;5084796;28;20049;-74
2023/05/29 03:07:52;;;;;;;17.52;3.47;;;;;;;9.39;83.48;102214.75;5065802;28;20049;-74
2023/05/29 03:10:37;;;;;;;17.20;3.60;;;;;;;9.41;83.50;102209.50;5073498;28;20966;-74
2023/05/29 03:13:22;;;;;;;14.02;3.50;;;;;;;9.37;83.77;102203.34;5089567;28;20060;-75
2023/05/29 03:16:18;;;;;;;14.13;3.63;;;;;;;9.35;83.88;102204.25;5073262;28;20057;-75
2023/05/29 03:19:05;;;;;;;11.30;2.67;;;;;;;9.33;83.88;102202.47;5060298;28;20516;-73
2023/05/29 03:21:50;;;;;;;15.15;4.07;;;;;;;9.32;84.04;102210.41;5084626;28;20053;-73
2023/05/29 03:24:36;;;;;;;16.52;3.88;;;;;;;9.29;84.12;102211.28;5079730;28;20052;-73
2023/05/29 03:27:22;;;;;;;15.45;3.45;;;;;;;9.28;84.23;102212.16;5066160;28;20091;-74
2023/05/29 03:30:16;;;;;;;19.35;4.00;;;;;;;9.26;84.12;102215.69;5068990;28;20520;-74
2023/05/29 03:33:03;;;;;;;15.48;3.88;;;;;;;9.28;84.23;102221.81;5072492;28;20530;-74
2023/05/29 03:36:18;;;;;;;15.65;3.20;;;;;;;9.29;84.10;102240.25;5083535;28;20045;-74
2023/05/29 03:39:04;;;;;;;18.33;3.13;;;;;;;9.27;84.14;102231.47;5086448;28;20060;-74
2023/05/29 03:41:49;;;;;;;17.95;3.63;;;;;;;9.26;84.33;102229.72;5086226;28;20495;-71
2023/05/29 03:44:35;;;;;;;15.73;3.20;;;;;;;9.32;83.90;102237.56;5060287;28;20931;-72
2023/05/29 03:47:23;;;;;;;13.82;3.20;;;;;;;9.29;83.97;102237.59;5071093;28;20503;-72
2023/05/29 03:50:11;;;;;;;12.20;3.22;;;;;;;9.30;83.99;102227.94;5072085;28;20048;-71
2023/05/29 03:52:56;;;;;;;16.35;3.55;;;;;;;9.29;83.98;102236.72;5081386;28;20068;-71
2023/05/29 03:55:42;;;;;;;11.48;3.10;;;;;;;9.32;83.83;102236.72;5073208;28;20059;-71
2023/05/29 03:58:27;;;;;;;18.45;3.28;;;;;;;9.35;83.74;102246.34;5068226;28;20061;-70
2023/05/29 04:01:13;;;;;;;14.77;3.10;;;;;;;9.36;83.66;102240.22;5067844;28;20138;-70
2023/05/29 04:03:59;;;;;;;16.38;3.53;;;;;;;9.39;83.47;102246.34;5069468;28;20486;-74
2023/05/29 04:06:45;;;;;;;18.70;3.28;;;;;;;9.41;83.31;102244.59;5066310;28;20064;-74
2023/05/29 04:09:30;;;;;;;18.05;3.45;;;;;;;9.47;83.19;102252.44;5084281;28;20773;-75
2023/05/29 04:12:16;;;;;;;14.20;3.60;;;;;;;9.48;82.95;102248.94;5075436;28;20107;-75
2023/05/29 04:15:02;;;;;;;17.80;3.50;;;;;;;9.53;83.00;102251.56;5081869;28;20562;-77
2023/05/29 04:17:47;;;;;;;14.50;3.13;;;;;;;9.56;82.46;102258.59;5085514;28;20051;-74
2023/05/29 04:20:32;;;;;;;18.13;3.55;;;;;;;9.59;82.59;102258.56;5083025;28;20053;-74
2023/05/29 04:23:18;;;;;;;16.35;3.65;;;;;;;9.61;82.44;102262.94;5076264;28;20064;-73
2023/05/29 04:26:05;;;;;;;16.50;3.20;;;;;;;9.62;82.23;102261.19;5085682;28;20504;-73
2023/05/29 04:28:57;;;;;;;15.45;3.25;;;;;;;9.67;82.39;102256.75;5063466;28;20141;-73
2023/05/29 04:31:43;;;;;;;18.85;3.70;;;;;;;9.74;81.50;102271.69;5063819;28;20049;-77
2023/05/29 04:34:30;;;;;;;16.17;3.35;;;;;;;9.75;81.55;102272.53;5071278;28;20049;-76
2023/05/29 04:37:15;;;;;;;16.38;3.40;;;;;;;9.79;81.37;102267.25;5073946;28;20155;-77
2023/05/29 04:40:01;;;;;;;14.85;3.50;;;;;;;9.85;80.83;102270.75;5084349;28;20057;-76
2023/05/29 04:42:47;;;;;;;12.57;3.28;;;;;;;9.92;80.71;102273.34;5079726;28;20773;-78
2023/05/29 04:45:34;;;;;;;20.23;3.78;;;;;;;10.20;80.52;102273.22;5078481;28;20056;-78
2023/05/29 04:48:19;;;;;;;14.60;3.78;;;;;;;11.15;76.49;102269.88;5075792;28;20906;-77
2023/05/29 04:51:05;;;;;;;14.00;2.95;;;;;;;11.49;74.59;102269.53;5073501;28;20057;-74
2023/05/29 04:53:51;;;;;;;16.70;3.30;;;;;;;11.12;75.23;102270.78;5084817;28;20521;-74
2023/05/29 04:56:37;;;;;;;16.00;3.67;;;;;;;10.87;75.98;102272.78;5084354;28;20063;-74
2023/05/29 04:59:22;;;;;;;12.43;2.78;;;;;;;10.91;75.92;102268.34;5074621;28;20357;-75
2023/05/29 05:02:07;;;;;;;11.13;3.00;;;;;;;11.18;74.93;102270.72;5106693;28;20040;-75
2023/05/29 05:04:53;;;;;;;16.55;3.20;;;;;;;11.09;74.94;102264.66;5104357;28;20049;-76
2023/05/29 05:07:39;;;;;;;17.55;3.33;;;;;;;11.02;74.93;102272.63;5073044;28;20052;-75
2023/05/29 05:10:25;;;;;;;15.48;2.75;;;;;;;11.18;74.55;102275.13;5069806;28;20054;-76
2023/05/29 05:13:12;;;;;;;14.98;2.78;;;;;;;11.40;73.73;102275.75;5086469;28;20440;-75
2023/05/29 05:15:58;;;;;;;16.95;3.13;;;;;;;11.70;73.03;102286.00;5069595;28;20061;-74
2023/05/29 05:18:44;;;;;;;15.57;2.90;;;;;;;12.08;71.35;102285.53;5083631;28;20060;-75
2023/05/29 05:21:31;;;;;;;14.75;2.70;;;;;;;12.36;69.54;102290.41;5079396;28;20052;-76
2023/05/29 05:24:16;;;;;;;9.90;2.63;;;;;;;12.23;69.59;102291.50;5081334;28;20060;-75
2023/05/29 05:27:03;;;;;;;10.13;2.50;;;;;;;12.25;69.98;102301.16;5067605;28;20053;-76
2023/05/29 05:29:48;;;;;;;17.95;3.35;;;;;;;12.66;68.34;102292.63;5063991;28;20140;-77
2023/05/29 05:32:34;;;;;;;14.93;3.28;;;;;;;13.43;65.71;102293.97;5085873;28;20048;-75
2023/05/29 05:35:24;;;;;;;17.50;3.03;;;;;;;14.59;61.46;102291.50;5075038;28;20136;-74
2023/05/29 05:38:09;;;;;;;11.85;2.50;;;;;;;15.38;57.91;102293.94;5064901;28;20501;-75
2023/05/29 05:40:54;;;;;;;15.07;2.58;;;;;;;16.02;55.49;102281.50;5069255;28;20061;-74
2023/05/29 05:43:46;;;;;;;14.77;2.67;;;;;;;16.72;54.25;102278.41;5065441;28;20172;-74
2023/05/29 05:46:37;;;;;;;11.70;2.50;;;;;;;16.59;53.46;102283.25;5081694;28;20106;-77
2023/05/29 05:49:22;;;;;;;14.02;2.45;;;;;;;16.74;52.70;102275.69;5065283;28;20053;-76
2023/05/29 05:52:08;;;;;;;11.80;2.95;;;;;;;17.03;51.51;102277.41;5053574;28;20913;-76
2023/05/29 05:54:53;;;;;;;12.25;2.10;;;;;;;17.29;51.09;102288.06;5083399;28;20139;-74
2023/05/29 05:57:38;;;;;;;9.32;2.25;;;;;;;17.37;49.95;102291.31;5081238;28;20052;-75
2023/05/29 06:00:25;;;;;;;9.38;2.13;;;;;;;17.22;49.93;102284.75;5071164;28;20762;-77
2023/05/29 06:03:15;;;;;;;14.25;2.90;;;;;;;17.83;48.62;102270.94;5064641;28;20088;-76
2023/05/29 06:06:18;;;;;;;9.80;2.03;;;;;;;18.07;48.21;102278.94;5065674;28;20049;-74
2023/05/29 06:09:05;;;;;;;13.52;2.47;;;;;;;18.41;46.56;102272.28;5085744;28;20064;-74
2023/05/29 06:11:51;;;;;;;9.60;2.40;;;;;;;17.58;48.17;102281.66;5087364;28;20056;-74
2023/05/29 06:14:36;;;;;;;12.48;2.30;;;;;;;15.94;51.87;102292.38;5086500;28;20143;-74
2023/05/29 06:17:23;;;;;;;9.25;1.90;;;;;;;14.79;55.32;102292.81;5084442;28;20053;-73
2023/05/29 06:20:13;;;;;;;10.65;2.40;;;;;;;14.20;57.99;102302.09;5081110;28;20172;-74
2023/05/29 06:22:59;;;;;;;8.80;1.98;;;;;;;13.87;59.13;102303.72;5081693;28;20087;-74
2023/05/29 06:25:45;;;;;;;11.43;2.05;;;;;;;13.64;59.84;102307.69;5076734;28;20056;-74
2023/05/29 06:28:32;;;;;;;11.30;2.58;;;;;;;13.44;60.35;102313.38;5076464;28;20185;-74
2023/05/29 06:31:17;;;;;;;15.13;2.72;;;;;;;13.30;61.62;102311.81;5061559;28;20107;-73
2023/05/29 06:34:03;;;;;;;15.18;2.28;;;;;;;13.31;61.58;102316.22;5075259;28;20060;-74
2023/05/29 06:36:48;;;;;;;13.80;2.15;;;;;;;13.35;61.74;102303.78;5067951;28;20135;-74
2023/05/29 06:39:34;;;;;;;11.02;2.38;;;;;;;13.35;61.79;102309.97;5076012;28;20099;-76
2023/05/29 06:42:19;;;;;;;12.55;2.45;;;;;;;13.36;61.81;102305.53;5069189;28;20518;-73
2023/05/29 06:45:08;;;;;;;12.63;2.45;;;;;;;13.44;61.51;102314.25;5085757;28;20063;-73
2023/05/29 06:47:55;;;;;;;10.52;2.10;;;;;;;13.44;60.71;102313.38;5058784;28;20052;-74
2023/05/29 06:50:40;;;;;;;17.67;2.60;;;;;;;13.43;61.42;102316.94;5066917;28;20052;-73
2023/05/29 06:53:52;;;;;;;14.55;2.42;;;;;;;13.48;60.85;102323.91;5080561;28;20072;-73
2023/05/29 06:56:38;;;;;;;14.93;2.50;;;;;;;13.51;60.14;102315.00;5067616;28;20052;-73
2023/05/29 06:59:23;;;;;;;12.52;2.42;;;;;;;13.51;60.11;102315.00;5064577;28;20068;-78
2023/05/29 07:02:10;;;;;;;9.85;1.88;;;;;;;13.43;60.28;102317.78;5087318;28;20194;-74
2023/05/29 07:04:56;;;;;;;12.13;2.10;;;;;;;13.43;60.41;102317.78;5063599;28;20135;-73
2023/05/29 07:07:43;;;;;;;9.05;1.83;;;;;;;13.44;59.79;102316.91;5073483;28;20053;-72
2023/05/29 07:10:30;;;;;;;13.32;2.17;;;;;;;13.47;60.12;102311.56;5085010;28;20167;-74
2023/05/29 07:13:17;;;;;;;9.35;2.25;;;;;;;13.55;59.95;102318.47;5082854;28;20048;-73
2023/05/29 07:16:03;;;;;;;10.68;2.88;;;;;;;13.66;58.62;102317.38;5077350;28;20052;-73
2023/05/29 07:19:02;;;;;;;10.80;2.00;;;;;;;13.78;58.26;102323.34;5055501;28;20048;-76
2023/05/29 07:21:51;;;;;;;11.05;2.20;;;;;;;13.80;57.25;102317.09;5064170;28;20056;-73
2023/05/29 07:24:38;;;;;;;8.02;1.80;;;;;;;13.86;58.32;102324.06;5040655;28;20113;-76
2023/05/29 07:27:23;;;;;;;7.93;1.80;;;;;;;13.96;57.58;102319.41;5050178;28;20054;-75
2023/05/29 07:30:11;;;;;;;13.15;2.80;;;;;;;13.98;58.03;102320.25;5058038;28;20049;-74
2023/05/29 07:32:56;;;;;;;12.52;2.47;;;;;;;14.16;58.37;102315.47;5027391;28;20046;-73
2023/05/29 07:35:42;;;;;;;13.85;2.40;;;;;;;14.32;58.94;102321.31;5036620;28;20058;-75
2023/05/29 07:38:28;;;;;;;12.85;2.55;;;;;;;14.58;58.11;102328.66;5047101;28;20137;-73
2023/05/29 07:41:16;;;;;;;13.23;3.13;;;;;;;14.67;56.89;102325.81;5048450;28;20148;-74
2023/05/29 07:44:08;;;;;;;;;;;;;;;14.76;57.41;102324.75;5059550;28;20062;-72
2023/05/29 07:46:55;;;;;;;10.27;2.30;;;;;;;14.90;56.27;102335.00;5036997;28;19926;-73
2023/05/29 07:50:01;;;;;;;10.68;2.13;;;;;;;14.86;56.25;102330.69;5028269;28;20054;-74
2023/05/29 07:52:47;;;;;;;9.25;2.30;;;;;;;14.90;55.62;102330.56;5047311;28;20045;-74
2023/05/29 07:55:35;;;;;;;7.85;2.13;;;;;;;14.86;56.26;102339.53;5044320;28;20116;-74
2023/05/29 07:58:21;;;;;;;11.05;2.38;;;;;;;15.05;54.67;102334.66;5060197;28;20057;-74
2023/05/29 08:01:07;;;;;;;11.40;2.45;;;;;;;15.06;54.85;102338.16;5035153;28;20053;-72
2023/05/29 08:03:55;;;;;;;11.27;2.13;;;;;;;15.12;54.69;102342.44;5045020;28;20049;-75
2023/05/29 08:06:47;;;;;;;15.30;2.75;;;;;;;15.19;54.71;102336.94;5049899;28;20297;-73
2023/05/29 08:09:32;;;;;;;10.80;2.30;;;;;;;15.32;53.93;102339.25;5040214;28;20041;-73
2023/05/29 08:12:20;;;;;;;9.40;1.95;;;;;;;15.30;53.19;102347.28;5056674;28;20144;-75
2023/05/29 08:15:08;;;;;;;10.00;2.40;;;;;;;15.36;52.80;102348.91;5039437;28;20050;-74
2023/05/29 08:17:55;;;;;;;10.43;2.35;;;;;;;15.45;53.09;102353.97;5043397;28;20295;-77
2023/05/29 08:20:40;;;;;;;14.02;2.97;;;;;;;15.49;53.49;102354.75;5044944;28;20053;-72
2023/05/29 08:23:26;;;;;;;9.57;2.33;;;;;;;15.60;52.64;102349.16;5060640;28;20057;-72
2023/05/29 08:26:12;;;;;;;11.27;2.17;;;;;;;15.53;53.25;102349.31;5076503;28;20060;-74
2023/05/29 08:28:58;;;;;;;7.32;1.70;;;;;;;15.61;52.99;102350.91;5087760;28;20045;-73
2023/05/29 08:31:44;;;;;;;10.38;2.65;;;;;;;15.60;52.86;102346.50;5072826;28;20139;-74
2023/05/29 08:34:30;;;;;;;12.25;1.88;;;;;;;15.72;51.91;102350.59;5085644;28;20111;-74
2023/05/29 08:37:16;;;;;;;12.57;2.65;;;;;;;15.71;51.16;102357.72;5082990;28;20052;-72
2023/05/29 08:40:07;;;;;;;7.85;1.85;;;;;;;15.71;51.71;102357.72;5081813;28;20064;-74
2023/05/29 08:43:10;;;;;;;11.05;2.33;;;;;;;15.87;52.31;102362.63;5073024;28;20049;-73
2023/05/29 08:46:00;;;;;;;8.18;1.63;;;;;;;16.18;50.65;102357.25;5080859;28;20056;-73
2023/05/29 08:48:52;;;;;;;7.72;2.00;;;;;;;16.27;50.97;102356.13;5082650;28;20887;-73
2023/05/29 08:51:43;;;;;;;7.45;1.70;;;;;;;16.52;49.29;102355.38;5085126;28;20584;-73
2023/05/29 08:54:32;;;;;;;6.13;1.58;;;;;;;16.48;48.76;102357.28;5084997;28;20512;-74
2023/05/29 08:57:20;;;;;;;10.15;2.00;;;;;;;16.48;49.35;102359.06;5075339;28;20057;-73
2023/05/29 09:00:17;;;;;;;9.48;1.98;;;;;;;16.56;48.70;102352.59;5085460;28;20424;-73
2023/05/29 09:03:03;;;;;;;8.13;2.13;;;;;;;16.60;48.31;102362.19;5078650;28;20048;-73
2023/05/29 09:05:49;;;;;;;7.10;1.77;;;;;;;16.67;47.93;102364.69;5092050;28;20055;-74
2023/05/29 09:08:37;;;;;;;8.88;1.92;;;;;;;16.71;48.01;102360.97;5085639;28;20517;-74
2023/05/29 09:11:22;;;;;;;9.57;1.60;;;;;;;16.73;47.61;102367.13;5086943;28;20041;-74
2023/05/29 09:14:36;;;;;;;9.55;1.90;;;;;;;16.79;48.74;102364.25;5083528;28;20513;-74
2023/05/29 09:17:22;;;;;;;8.38;1.80;;;;;;;17.05;48.09;102365.25;5081136;28;20061;-76
2023/05/29 09:20:17;;;;;;;9.25;2.20;;;;;;;17.04;48.74;102358.19;5083609;28;20059;-75
2023/05/29 09:23:07;;;;;;;10.40;2.00;;;;;;;17.12;48.44;102361.44;5075425;28;20127;-74
2023/05/29 09:25:56;;;;;;;11.73;2.20;;;;;;;17.26;48.13;102360.97;5068951;28;20175;-76
2023/05/29 09:28:45;;;;;;;8.05;1.98;;;;;;;17.19;48.52;102360.34;5083736;28;20056;-76
2023/05/29 09:31:31;;;;;;;9.45;2.10;;;;;;;17.29;47.39;102360.88;5070402;28;20135;-75
2023/05/29 09:34:16;;;;;;;11.15;1.52;;;;;;;17.22;47.42;102368.19;5085976;28;20048;-77
2023/05/29 09:37:09;;;;;;;7.25;1.63;;;;;;;17.21;46.94;102362.94;5085997;28;20053;-77
2023/05/29 09:39:55;;;;;;;5.63;1.73;;;;;;;17.25;47.30;102353.91;5087807;28;20052;-74
2023/05/29 09:42:41;;;;;;;4.68;1.63;;;;;;;17.34;46.77;102364.25;5074079;28;20611;-77
2023/05/29 09:45:28;;;;;;;11.38;2.45;;;;;;;17.39;47.07;102356.97;5104445;28;20041;-76
2023/05/29 09:48:22;;;;;;;7.80;1.90;;;;;;;17.61;46.92;102361.53;5109407;28;20103;-76
2023/05/29 09:51:22;;;;;;;11.00;1.92;;;;;;;17.75;46.67;102366.38;5086985;28;20052;-78
2023/05/29 09:54:16;;;;;;;7.57;1.90;;;;;;;17.84;46.94;102360.69;5088369;28;20076;-76
2023/05/29 09:57:06;;;;;;;8.80;1.67;;;;;;;18.02;45.83;102355.63;5087355;28;20754;-77
2023/05/29 09:59:52;;;;;;;10.43;1.90;;;;;;;18.09;45.11;102349.16;5083704;28;20049;-76
2023/05/29 10:02:40;;;;;;;10.05;2.03;;;;;;;18.03;44.93;102357.38;5083702;28;20135;-76
2023/05/29 10:05:26;;;;;;;6.82;1.80;;;;;;;17.99;45.14;102351.28;5074217;28;20103;-75
2023/05/29 10:08:14;;;;;;;6.75;1.58;;;;;;;18.04;45.29;102345.75;5078193;28;20053;-75
2023/05/29 10:11:09;;;;;;;9.07;2.20;;;;;;;17.97;46.09;102342.47;5081727;28;20052;-80
2023/05/29 10:13:57;;;;;;;8.27;1.83;;;;;;;18.08;45.96;102335.84;5068899;28;20068;-76
2023/05/29 10:16:47;;;;;;;7.18;2.15;;;;;;;18.29;47.09;102339.50;5080432;28;20049;-75
2023/05/29 10:19:37;;;;;;;8.02;1.55;;;;;;;18.57;45.51;102346.41;5086203;28;20781;-75
2023/05/29 10:22:26;;;;;;;8.52;2.00;;;;;;;18.71;44.60;102343.16;5084596;28;20076;-76
2023/05/29 10:25:15;;;;;;;10.93;1.92;;;;;;;18.77;44.70;102343.78;5078037;28;20061;-76
2023/05/29 10:28:02;;;;;;;8.95;1.80;;;;;;;18.90;45.00;102344.13;5075061;28;20053;-77
2023/05/29 10:31:08;;;;;;;10.80;1.90;;;;;;;19.02;44.25;102337.47;5083521;28;20053;-77
2023/05/29 10:34:30;;;;;;;6.97;1.98;;;;;;;19.12;43.19;102339.75;5077445;28;20991;-78
2023/05/29 10:37:57;;;;;;;6.35;1.60;;;;;;;19.22;42.86;102341.09;5077040;28;20056;-77
2023/05/29 10:40:43;;;;;;;7.22;1.70;;;;;;;19.08;43.52;102341.66;5075393;28;20040;-76
2023/05/29 10:43:34;;;;;;;9.80;1.73;;;;;;;19.06;43.97;102343.53;5076748;28;20204;-75
2023/05/29 10:46:21;;;;;;;6.68;1.67;;;;;;;19.24;42.48;102341.88;5083853;28;20116;-76
2023/05/29 10:49:20;;;;;;;4.25;1.55;;;;;;;19.26;41.96;102344.50;5081266;28;20060;-75
2023/05/29 10:52:10;;;;;;;9.55;2.10;;;;;;;19.13;42.63;102328.97;5085145;28;20513;-76
2023/05/29 10:54:57;;;;;;;7.50;1.80;;;;;;;19.17;42.88;102330.59;5074515;28;20052;-78
2023/05/29 10:57:48;;;;;;;5.72;1.73;;;;;;;19.18;43.49;102339.47;5073310;28;20057;-77
2023/05/29 11:00:44;;;;;;;8.00;1.75;;;;;;;19.23;42.09;102337.44;5076195;28;20052;-76
2023/05/29 11:03:31;;;;;;;8.10;1.75;;;;;;;19.09;43.14;102332.69;5077426;28;20178;-77
2023/05/29 11:06:23;;;;;;;9.35;1.83;;;;;;;19.22;42.44;102335.75;5068997;28;20132;-79
2023/05/29 11:09:36;;;;;;;6.80;1.95;;;;;;;19.30;43.01;102325.56;5080425;28;20879;-78
2023/05/29 11:12:33;;;;;;;8.18;1.75;;;;;;;19.41;42.39;102330.44;5089687;28;20057;-76
2023/05/29 11:15:19;;;;;;;10.32;2.00;;;;;;;19.59;42.69;102330.53;5081260;28;20052;-76
2023/05/29 11:18:08;;;;;;;9.02;2.00;;;;;;;19.93;40.79;102334.41;5087992;28;20097;-76
2023/05/29 11:21:05;;;;;;;9.55;1.92;;;;;;;19.73;41.69;102329.94;5087740;28;20527;-77
2023/05/29 11:23:54;;;;;;;13.13;1.80;;;;;;;19.77;41.55;102332.41;5085791;28;20915;-75
2023/05/29 11:26:45;;;;;;;9.52;1.52;;;;;;;19.93;40.46;102331.72;5082318;28;20053;-78
2023/05/29 11:29:30;;;;;;;8.25;2.05;;;;;;;19.91;40.77;102326.44;5086562;28;20698;-78
2023/05/29 11:32:17;;;;;;;5.45;1.73;;;;;;;19.94;40.23;102322.75;5084795;28;20513;-76
2023/05/29 11:35:10;;;;;;;8.20;2.08;;;;;;;19.88;39.54;102328.41;5087789;28;20060;-77
2023/05/29 11:37:56;;;;;;;7.82;1.92;;;;;;;19.71;40.52;102322.84;5080160;28;20057;-77
2023/05/29 11:40:41;;;;;;;6.35;1.63;;;;;;;19.81;40.75;102312.59;5088609;28;20063;-78
2023/05/29 11:43:27;;;;;;;9.50;1.90;;;;;;;19.91;40.87;102326.44;5082186;28;20052;-77
2023/05/29 11:46:20;;;;;;;10.40;1.83;;;;;;;19.98;40.37;102311.84;5077365;28;20061;-77
2023/05/29 11:49:05;;;;;;;7.22;1.77;;;;;;;19.99;40.33;102318.06;5080093;28;20068;-77
2023/05/29 11:51:51;;;;;;;8.15;1.80;;;;;;;20.04;40.32;102320.53;5088582;28;20857;-77
2023/05/29 11:54:38;;;;;;;5.28;1.60;;;;;;;20.04;40.10;102317.84;5074158;28;20104;-80
2023/05/29 11:57:25;;;;;;;7.68;1.83;;;;;;;20.11;40.38;102316.63;5080061;28;20132;-76
2023/05/29 12:00:15;;;;;;;6.78;2.08;;;;;;;20.01;40.96;102306.34;5079589;28;20056;-77
2023/05/29 12:03:03;;;;;;;4.80;1.45;;;;;;;20.11;39.97;102313.94;5069152;28;20061;-76
2023/05/29 12:05:55;;;;;;;8.77;2.10;;;;;;;20.07;39.96;102315.00;5081532;28;20056;-77
2023/05/29 12:08:41;;;;;;;7.35;2.03;;;;;;;19.97;40.82;102310.09;5078429;28;20712;-75
2023/05/29 12:11:26;;;;;;;7.05;1.70;;;;;;;20.17;40.63;102314.53;5081480;28;20052;-77
2023/05/29 12:14:12;;;;;;;7.53;1.98;;;;;;;20.31;39.99;102311.19;5073732;28;20056;-76
2023/05/29 12:16:58;;;;;;;7.43;2.00;;;;;;;20.37;38.85;102304.66;5078912;28;20167;-77
2023/05/29 12:19:43;;;;;;;8.93;1.42;;;;;;;20.31;39.16;102310.28;5078688;28;20057;-77
2023/05/29 12:22:37;;;;;;;8.13;2.00;;;;;;;20.28;38.84;102305.97;5087326;28;20095;-78
2023/05/29 12:25:23;;;;;;;8.98;1.80;;;;;;;20.31;38.55;102307.63;5078063;28;20045;-78
2023/05/29 12:28:08;;;;;;;5.68;1.80;;;;;;;20.38;38.42;102305.50;5079936;28;20048;-76
2023/05/29 12:30:59;;;;;;;6.38;1.48;;;;;;;20.40;38.62;102304.50;5077248;28;20064;-76
2023/05/29 12:33:45;;;;;;;6.07;1.67;;;;;;;20.52;37.84;102307.50;5073998;28;20100;-76
2023/05/29 12:36:32;;;;;;;4.38;1.48;;;;;;;20.51;37.26;102313.81;5072703;28;20108;-78
2023/05/29 12:39:17;;;;;;;9.15;2.00;;;;;;;20.50;38.33;102312.94;5076792;28;20057;-77
2023/05/29 12:42:03;;;;;;;6.78;1.98;;;;;;;20.56;38.44;102312.63;5074767;28;20103;-77
2023/05/29 12:44:49;;;;;;;5.93;1.88;;;;;;;20.67;37.88;102313.91;5075111;28;20524;-77
2023/05/29 12:47:36;;;;;;;5.43;1.58;;;;;;;20.77;36.53;102310.75;5081583;28;20815;-77
2023/05/29 12:50:26;;;;;;;7.47;1.90;;;;;;;20.68;37.94;102310.28;5084307;28;20056;-76
2023/05/29 12:53:15;;;;;;;4.93;1.98;;;;;;;20.75;37.26;102307.28;5078298;28;20056;-77
2023/05/29 12:56:01;;;;;;;10.82;2.10;;;;;;;20.71;36.09;102315.50;5084275;28;20121;-78
2023/05/29 12:58:51;;;;;;;8.27;1.83;;;;;;;20.66;36.20;102313.06;5067402;28;20057;-76
2023/05/29 13:01:38;;;;;;;5.75;2.08;;;;;;;20.68;35.11;102313.84;5081828;28;20048;-77